createdAt,value
2019-02-17T00:01:01.508Z,71.65
2019-02-17T00:03:28.559Z,71.45
2019-02-17T00:05:55.694Z,71.37
2019-02-17T00:08:22.714Z,71.41
2019-02-17T00:10:49.746Z,71.72
2019-02-17T00:13:16.803Z,71.84
2019-02-17T00:15:43.837Z,71.82
2019-02-17T00:18:10.874Z,71.71
2019-02-17T00:20:37.922Z,71.60
2019-02-17T00:23:04.963Z,71.72
2019-02-17T00:25:32.007Z,71.85
2019-02-17T00:27:59.032Z,71.98
2019-02-17T00:30:26.049Z,72.08
2019-02-17T00:32:53.086Z,72.19
2019-02-17T00:35:20.113Z,72.17
2019-02-17T00:37:47.163Z,72.06
2019-02-17T00:40:14.292Z,72.02
2019-02-17T00:42:41.374Z,72.19
2019-02-17T00:45:08.470Z,72.09
2019-02-17T00:47:35.518Z,72.01
2019-02-17T00:50:02.787Z,71.89
2019-02-17T00:52:29.873Z,72.18
2019-02-17T00:54:56.940Z,72.35
2019-02-17T00:57:23.974Z,72.48
2019-02-17T00:59:51.003Z,72.38
2019-02-17T01:02:18.048Z,72.24
2019-02-17T01:04:45.085Z,72.18
2019-02-17T01:07:12.134Z,72.22
2019-02-17T01:09:39.138Z,72.03
2019-02-17T01:12:06.159Z,72.02
2019-02-17T01:14:33.203Z,72.02
2019-02-17T01:17:00.255Z,71.73
2019-02-17T01:19:27.297Z,71.76
2019-02-17T01:21:54.328Z,71.72
2019-02-17T01:24:21.359Z,71.80
2019-02-17T01:26:48.378Z,71.77
2019-02-17T01:29:20.450Z,71.82
2019-02-17T01:31:44.473Z,71.77
2019-02-17T01:34:11.489Z,71.94
2019-02-17T01:36:38.522Z,71.91
2019-02-17T01:39:06.025Z,71.79
2019-02-17T01:41:33.067Z,72.00
2019-02-17T01:44:00.093Z,72.52
2019-02-17T01:46:27.131Z,72.71
2019-02-17T01:48:54.181Z,72.65
2019-02-17T01:51:21.206Z,72.55
2019-02-17T01:53:48.255Z,72.43
2019-02-17T01:56:15.285Z,72.32
2019-02-17T01:58:42.301Z,72.39
2019-02-17T02:01:09.324Z,72.32
2019-02-17T02:03:36.376Z,72.22
2019-02-17T02:06:03.521Z,72.05
2019-02-17T02:08:30.566Z,71.99
2019-02-17T02:10:57.590Z,72.14
2019-02-17T02:13:24.634Z,72.13
2019-02-17T02:15:51.677Z,72.18
2019-02-17T02:18:18.729Z,72.09
2019-02-17T02:20:45.737Z,71.98
2019-02-17T02:23:12.797Z,72.02
2019-02-17T02:25:39.837Z,72.01
2019-02-17T02:28:06.863Z,71.87
2019-02-17T02:30:33.873Z,71.75
2019-02-17T02:33:00.908Z,71.67
2019-02-17T02:35:27.955Z,71.62
2019-02-17T02:37:54.979Z,71.65
2019-02-17T02:40:22.007Z,71.62
2019-02-17T02:42:49.046Z,71.75
2019-02-17T02:45:16.090Z,71.76
2019-02-17T02:47:43.119Z,71.70
2019-02-17T02:50:10.871Z,71.78
2019-02-17T02:52:37.900Z,71.79
2019-02-17T02:55:05.078Z,71.88
2019-02-17T02:57:32.103Z,71.80
2019-02-17T02:59:59.144Z,71.78
2019-02-17T03:02:26.183Z,71.86
2019-02-17T03:04:53.212Z,71.97
2019-02-17T03:07:21.303Z,72.11
2019-02-17T03:09:48.319Z,72.14
2019-02-17T03:12:15.379Z,72.27
2019-02-17T03:14:42.420Z,72.37
2019-02-17T03:17:09.515Z,72.56
2019-02-17T03:19:36.550Z,72.68
2019-02-17T03:22:03.606Z,72.60
2019-02-17T03:24:30.628Z,72.50
2019-02-17T03:26:57.705Z,72.49
2019-02-17T03:29:24.709Z,72.38
2019-02-17T03:31:51.725Z,72.20
2019-02-17T03:34:18.761Z,72.09
2019-02-17T03:36:45.805Z,72.16
2019-02-17T03:39:12.861Z,72.04
2019-02-17T03:41:39.893Z,71.90
2019-02-17T03:44:06.920Z,72.05
2019-02-17T03:46:33.942Z,72.08
2019-02-17T03:49:01.027Z,72.28
2019-02-17T03:51:28.048Z,72.26
2019-02-17T03:53:55.089Z,72.23
2019-02-17T03:56:22.106Z,72.54
2019-02-17T03:58:49.150Z,72.40
2019-02-17T04:01:16.191Z,72.43
2019-02-17T04:03:43.219Z,72.51
2019-02-17T04:06:10.238Z,72.63
2019-02-17T04:08:39.262Z,72.50
2019-02-17T04:11:06.290Z,72.42
2019-02-17T04:13:33.338Z,72.36
2019-02-17T04:16:00.362Z,72.33
2019-02-17T04:18:27.405Z,72.31
2019-02-17T04:20:54.443Z,72.29
2019-02-17T04:23:31.019Z,72.21
2019-02-17T04:25:53.465Z,72.19
2019-02-17T04:28:20.496Z,72.02
2019-02-17T04:30:47.549Z,72.00
2019-02-17T04:33:14.602Z,71.94
2019-02-17T04:35:41.631Z,71.88
2019-02-17T04:38:08.667Z,71.87
2019-02-17T04:40:35.689Z,71.84
2019-02-17T04:43:02.739Z,71.85
2019-02-17T04:45:29.763Z,71.93
2019-02-17T04:47:56.793Z,71.91
2019-02-17T04:50:23.817Z,71.97
2019-02-17T04:52:50.873Z,71.94
2019-02-17T04:55:17.846Z,72.05
2019-02-17T04:57:44.912Z,72.11
2019-02-17T05:00:12.058Z,72.13
2019-02-17T05:02:39.146Z,72.14
2019-02-17T05:05:06.356Z,72.19
2019-02-17T05:07:33.401Z,72.16
2019-02-17T05:10:00.438Z,72.14
2019-02-17T05:12:27.472Z,71.96
2019-02-17T05:14:54.499Z,71.92
2019-02-17T05:17:21.533Z,71.79
2019-02-17T05:19:48.601Z,71.77
2019-02-17T05:22:15.622Z,71.71
2019-02-17T05:24:42.660Z,71.64
2019-02-17T05:27:09.683Z,71.58
2019-02-17T05:29:36.745Z,71.58
2019-02-17T05:32:03.767Z,71.58
2019-02-17T05:34:30.809Z,71.50
2019-02-17T05:36:57.835Z,71.50
2019-02-17T05:39:24.912Z,71.55
2019-02-17T05:41:51.948Z,71.58
2019-02-17T05:44:18.980Z,71.53
2019-02-17T05:46:46.007Z,71.46
2019-02-17T05:49:13.043Z,71.37
2019-02-17T05:51:40.089Z,71.54
2019-02-17T05:54:07.126Z,71.87
2019-02-17T05:56:34.165Z,72.02
2019-02-17T05:59:01.208Z,71.97
2019-02-17T06:01:28.233Z,71.82
2019-02-17T06:03:55.274Z,71.73
2019-02-17T06:06:22.292Z,71.65
2019-02-17T06:08:49.325Z,71.63
2019-02-17T06:11:16.391Z,71.59
2019-02-17T06:13:43.429Z,71.54
2019-02-17T06:16:10.476Z,71.54
2019-02-17T06:18:37.529Z,71.70
2019-02-17T06:21:04.589Z,71.61
2019-02-17T06:23:31.644Z,71.59
2019-02-17T06:25:58.689Z,71.48
2019-02-17T06:28:25.733Z,71.29
2019-02-17T06:30:52.777Z,71.16
2019-02-17T06:33:19.834Z,71.31
2019-02-17T06:35:46.868Z,71.34
2019-02-17T06:38:13.911Z,71.33
2019-02-17T06:40:40.940Z,71.38
2019-02-17T06:43:08.069Z,71.90
2019-02-17T06:45:35.103Z,71.97
2019-02-17T06:48:02.199Z,71.89
2019-02-17T06:50:29.272Z,71.78
2019-02-17T06:52:56.317Z,73.05
2019-02-17T06:55:45.832Z,73.69
2019-02-17T06:58:12.882Z,73.44
2019-02-17T07:00:42.842Z,71.59
2019-02-17T07:03:09.898Z,70.45
2019-02-17T07:05:42.704Z,70.14
2019-02-17T07:08:10.504Z,69.86
2019-02-17T07:10:37.551Z,70.19
2019-02-17T07:13:04.595Z,70.36
2019-02-17T07:15:31.667Z,70.45
2019-02-17T07:17:59.257Z,70.51
2019-02-17T07:20:26.442Z,70.50
2019-02-17T07:22:53.504Z,70.76
2019-02-17T07:25:29.683Z,70.99
2019-02-17T07:27:49.504Z,71.29
2019-02-17T07:30:16.528Z,71.47
2019-02-17T07:32:43.559Z,71.67
2019-02-17T07:35:10.635Z,71.86
2019-02-17T07:37:37.689Z,72.01
2019-02-17T07:40:04.855Z,72.17
2019-02-17T07:42:31.949Z,72.27
2019-02-17T07:44:58.996Z,72.47
2019-02-17T07:47:26.034Z,72.74
2019-02-17T07:49:53.072Z,72.63
2019-02-17T07:52:20.110Z,72.79
2019-02-17T07:54:47.151Z,72.84
2019-02-17T07:57:14.199Z,76.47
2019-02-17T07:59:41.225Z,76.55
2019-02-17T08:02:08.272Z,74.19
2019-02-17T08:04:35.316Z,73.06
2019-02-17T08:07:02.350Z,72.48
2019-02-17T08:09:29.379Z,71.99
2019-02-17T08:11:56.409Z,73.57
2019-02-17T08:14:23.505Z,77.52
2019-02-17T08:16:50.567Z,77.36
2019-02-17T08:19:17.588Z,73.22
2019-02-17T08:21:44.632Z,69.47
2019-02-17T08:24:11.685Z,68.50
2019-02-17T08:26:38.746Z,67.06
2019-02-17T08:29:05.778Z,66.33
2019-02-17T08:31:32.846Z,65.03
2019-02-17T08:33:59.920Z,65.69
2019-02-17T08:36:26.976Z,66.72
2019-02-17T08:38:54.003Z,65.33
2019-02-17T08:41:21.076Z,65.34
2019-02-17T08:43:48.115Z,65.58
2019-02-17T08:46:15.178Z,65.84
2019-02-17T08:48:42.235Z,66.11
2019-02-17T08:51:09.265Z,66.34
2019-02-17T08:53:36.307Z,66.62
2019-02-17T08:56:03.373Z,66.70
2019-02-17T08:58:30.415Z,66.65
2019-02-17T09:00:57.505Z,66.33
2019-02-17T09:03:24.563Z,66.27
2019-02-17T09:05:51.616Z,66.33
2019-02-17T09:08:18.663Z,66.31
2019-02-17T09:10:45.705Z,66.23
2019-02-17T09:13:12.808Z,66.27
2019-02-17T09:15:39.839Z,66.42
2019-02-17T09:18:06.918Z,66.46
2019-02-17T09:20:33.969Z,66.31
2019-02-17T09:23:01.055Z,66.01
2019-02-17T09:25:28.105Z,65.65
2019-02-17T09:27:55.179Z,65.45
2019-02-17T09:30:22.215Z,64.87
2019-02-17T09:32:49.314Z,64.52
2019-02-17T09:35:16.350Z,64.17
2019-02-17T09:37:43.396Z,63.78
2019-02-17T09:40:10.740Z,63.39
2019-02-17T09:42:37.779Z,62.94
2019-02-17T09:45:05.227Z,62.49
2019-02-17T09:47:32.270Z,62.09
2019-02-17T09:49:59.351Z,61.68
2019-02-17T09:52:26.453Z,61.16
2019-02-17T09:54:53.520Z,60.66
2019-02-17T09:57:20.727Z,59.86
2019-02-17T09:59:47.812Z,58.99
2019-02-17T10:02:14.862Z,58.05
2019-02-17T10:04:41.910Z,57.31
2019-02-17T10:07:08.935Z,56.61
2019-02-17T10:09:41.784Z,55.70
2019-02-17T10:12:09.032Z,55.09
2019-02-17T10:14:36.108Z,54.65
2019-02-17T10:17:03.233Z,53.94
2019-02-17T10:19:30.251Z,53.05
2019-02-17T10:21:57.296Z,53.03
2019-02-17T10:24:24.478Z,52.29
2019-02-17T10:26:51.555Z,52.40
2019-02-17T10:29:18.638Z,51.58
2019-02-17T10:31:45.698Z,50.41
2019-02-17T10:34:12.740Z,48.96
2019-02-17T10:36:39.844Z,47.47
2019-02-17T10:39:06.910Z,48.19
2019-02-17T10:41:33.983Z,47.18
2019-02-17T10:44:01.056Z,44.72
2019-02-17T10:46:28.190Z,43.77
2019-02-17T10:48:55.232Z,43.13
2019-02-17T10:51:22.298Z,42.57
2019-02-17T10:53:49.381Z,41.91
2019-02-17T10:56:16.446Z,41.21
2019-02-17T10:58:43.533Z,40.75
2019-02-17T11:01:10.590Z,40.01
2019-02-17T11:03:37.683Z,39.45
2019-02-17T11:06:04.750Z,39.12
2019-02-17T11:08:31.832Z,39.01
2019-02-17T11:10:58.902Z,38.96
2019-02-17T11:13:26.013Z,39.03
2019-02-17T11:15:53.037Z,39.13
2019-02-17T11:18:20.126Z,39.22
2019-02-17T11:20:47.306Z,39.22
2019-02-17T11:23:14.412Z,39.26
2019-02-17T11:25:41.539Z,38.45
2019-02-17T11:28:08.643Z,38.23
2019-02-17T11:30:35.737Z,37.93
2019-02-17T11:33:02.966Z,37.52
2019-02-17T11:35:30.153Z,37.03
2019-02-17T11:37:57.215Z,36.50
2019-02-17T11:40:24.354Z,36.14
2019-02-17T11:42:51.552Z,35.85
2019-02-17T11:45:18.622Z,35.56
2019-02-17T11:47:45.703Z,35.39
2019-02-17T11:50:12.813Z,35.28
2019-02-17T11:52:39.884Z,35.06
2019-02-17T11:55:10.728Z,35.09
2019-02-17T11:57:37.969Z,34.57
2019-02-17T12:00:08.338Z,34.28
2019-02-17T12:02:35.416Z,33.48
2019-02-17T12:05:02.491Z,33.48
2019-02-17T12:07:29.556Z,33.13
2019-02-17T12:09:56.651Z,32.48
2019-02-17T12:12:23.714Z,32.15
2019-02-17T12:14:50.807Z,32.49
2019-02-17T12:17:17.890Z,32.30
2019-02-17T12:19:44.980Z,32.02
2019-02-17T12:22:17.444Z,31.99
2019-02-17T12:25:00.054Z,32.18
2019-02-17T12:27:46.998Z,32.00
2019-02-17T12:30:17.746Z,32.00
2019-02-17T12:32:44.865Z,32.10
2019-02-17T12:35:11.977Z,32.00
2019-02-17T12:37:39.043Z,31.84
2019-02-17T12:40:09.622Z,31.71
2019-02-17T12:42:36.670Z,31.79
2019-02-17T12:45:03.942Z,31.64
2019-02-17T12:47:31.097Z,31.57
2019-02-17T12:49:58.174Z,31.44
2019-02-17T12:52:25.305Z,31.32
2019-02-17T12:54:52.352Z,31.19
2019-02-17T12:57:19.421Z,31.41
2019-02-17T12:59:46.503Z,31.94
2019-02-17T13:02:13.580Z,32.56
2019-02-17T13:04:40.648Z,32.77
2019-02-17T13:07:07.743Z,32.29
2019-02-17T13:09:34.824Z,32.37
2019-02-17T13:12:01.938Z,32.41
2019-02-17T13:14:29.045Z,32.56
2019-02-17T13:16:56.118Z,32.33
2019-02-17T13:19:23.194Z,32.46
2019-02-17T13:21:50.246Z,32.56
2019-02-17T13:24:17.292Z,32.71
2019-02-17T13:26:44.386Z,33.08
2019-02-17T13:29:11.447Z,33.56
2019-02-17T13:31:38.521Z,33.73
2019-02-17T13:34:05.620Z,33.47
2019-02-17T13:36:32.707Z,33.37
2019-02-17T13:38:59.775Z,33.20
2019-02-17T13:41:27.017Z,33.29
2019-02-17T13:43:54.083Z,33.47
2019-02-17T13:46:21.180Z,34.49
2019-02-17T13:48:48.277Z,34.49
2019-02-17T13:51:15.373Z,34.16
2019-02-17T13:53:42.473Z,34.21
2019-02-17T13:56:09.551Z,33.96
2019-02-17T13:58:36.633Z,34.79
2019-02-17T14:01:03.703Z,32.85
2019-02-17T14:03:30.759Z,31.67
2019-02-17T14:05:57.852Z,31.67
2019-02-17T14:08:24.948Z,31.39
2019-02-17T14:11:04.622Z,32.20
2019-02-17T14:13:31.722Z,32.20
2019-02-17T14:15:58.822Z,32.60
2019-02-17T14:18:25.890Z,32.95
2019-02-17T14:21:05.698Z,33.06
2019-02-17T14:23:32.762Z,32.60
2019-02-17T14:25:59.838Z,32.60
2019-02-17T14:28:26.935Z,32.92
2019-02-17T14:30:54.023Z,33.04
2019-02-17T14:33:21.144Z,32.84
2019-02-17T14:35:48.176Z,32.40
2019-02-17T14:38:15.326Z,32.12
2019-02-17T14:40:42.410Z,31.69
2019-02-17T14:43:09.536Z,31.38
2019-02-17T14:45:36.624Z,31.22
2019-02-17T14:48:03.743Z,30.81
2019-02-17T14:50:30.813Z,30.52
2019-02-17T14:52:57.910Z,30.43
2019-02-17T14:55:27.076Z,30.29
2019-02-17T14:57:54.168Z,30.01
2019-02-17T15:00:21.347Z,30.41
2019-02-17T15:02:48.454Z,30.38
2019-02-17T15:05:15.583Z,30.16
2019-02-17T15:07:42.716Z,29.96
2019-02-17T15:10:09.812Z,30.05
2019-02-17T15:12:37.036Z,29.90
2019-02-17T15:15:04.357Z,30.12
2019-02-17T15:17:31.486Z,30.08
2019-02-17T15:19:58.645Z,29.70
2019-02-17T15:22:25.790Z,29.91
2019-02-17T15:24:52.906Z,29.80
2019-02-17T15:27:20.025Z,30.53
2019-02-17T15:29:47.129Z,30.79
2019-02-17T15:32:14.238Z,31.38
2019-02-17T15:34:41.347Z,31.85
2019-02-17T15:37:08.468Z,32.45
2019-02-17T15:39:35.598Z,33.01
2019-02-17T15:42:02.735Z,33.33
2019-02-17T15:44:29.865Z,33.69
2019-02-17T15:46:56.993Z,34.27
2019-02-17T15:49:24.086Z,34.48
2019-02-17T15:51:51.233Z,35.01
2019-02-17T15:54:18.379Z,35.57
2019-02-17T15:56:45.531Z,36.52
2019-02-17T15:59:12.691Z,37.39
2019-02-17T16:01:52.421Z,39.73
2019-02-17T16:04:32.588Z,40.68
2019-02-17T16:07:12.682Z,41.65
2019-02-17T16:09:39.872Z,41.65
2019-02-17T16:12:07.005Z,42.71
2019-02-17T16:14:34.119Z,43.67
2019-02-17T16:17:01.199Z,44.40
2019-02-17T16:19:28.561Z,45.06
2019-02-17T16:21:55.686Z,45.69
2019-02-17T16:24:24.529Z,46.34
2019-02-17T16:26:51.655Z,46.87
2019-02-17T16:29:18.821Z,47.32
2019-02-17T16:31:46.164Z,47.72
2019-02-17T16:34:13.338Z,48.25
2019-02-17T16:36:40.701Z,48.56
2019-02-17T16:39:29.399Z,49.39
2019-02-17T16:41:56.892Z,49.92
2019-02-17T16:44:24.106Z,50.38
2019-02-17T16:46:51.661Z,50.69
2019-02-17T16:49:19.159Z,51.00
2019-02-17T16:51:46.367Z,51.45
2019-02-17T16:54:13.736Z,51.75
2019-02-17T16:56:40.880Z,52.13
2019-02-17T16:59:08.378Z,52.44
2019-02-17T17:01:35.603Z,53.10
2019-02-17T17:04:02.917Z,53.44
2019-02-17T17:06:30.111Z,53.57
2019-02-17T17:08:57.283Z,53.61
2019-02-17T17:11:24.638Z,53.81
2019-02-17T17:13:52.859Z,54.15
2019-02-17T17:16:21.016Z,54.43
2019-02-17T17:18:48.200Z,54.63
2019-02-17T17:21:15.670Z,54.81
2019-02-17T17:23:42.893Z,55.33
2019-02-17T17:26:10.074Z,55.89
2019-02-17T17:28:37.282Z,56.40
2019-02-17T17:31:04.496Z,56.65
2019-02-17T17:33:31.947Z,56.98
2019-02-17T17:35:59.133Z,57.48
2019-02-17T17:38:26.282Z,57.69
2019-02-17T17:40:53.643Z,57.64
2019-02-17T17:43:21.094Z,57.71
2019-02-17T17:45:48.744Z,57.79
2019-02-17T17:48:15.946Z,58.06
2019-02-17T17:50:43.311Z,58.45
2019-02-17T17:53:11.326Z,58.53
2019-02-17T17:55:38.875Z,58.73
2019-02-17T17:58:06.163Z,58.89
2019-02-17T18:00:34.459Z,58.93
2019-02-17T18:03:02.143Z,59.11
2019-02-17T18:05:30.650Z,58.99
2019-02-17T18:07:57.865Z,59.05
2019-02-17T18:10:25.159Z,59.18
2019-02-17T18:12:52.629Z,59.26
2019-02-17T18:15:20.290Z,59.38
2019-02-17T18:17:54.264Z,59.69
2019-02-17T18:20:17.661Z,59.86
2019-02-17T18:22:47.584Z,60.06
2019-02-17T18:25:15.276Z,60.15
2019-02-17T18:27:42.834Z,60.24
2019-02-17T18:30:13.120Z,60.45
2019-02-17T18:32:40.556Z,60.58
2019-02-17T18:35:08.291Z,60.68
2019-02-17T18:37:35.729Z,60.70
2019-02-17T18:40:04.206Z,60.88
2019-02-17T18:42:31.993Z,61.19
2019-02-17T18:44:59.525Z,61.39
2019-02-17T18:47:26.815Z,61.51
2019-02-17T18:49:54.303Z,61.74
2019-02-17T18:52:21.809Z,61.98
2019-02-17T18:54:50.971Z,61.93
2019-02-17T18:57:18.429Z,61.98
2019-02-17T18:59:45.934Z,62.15
2019-02-17T19:02:13.459Z,62.31
2019-02-17T19:04:41.680Z,62.34
2019-02-17T19:07:09.356Z,62.46
2019-02-17T19:09:36.790Z,62.57
2019-02-17T19:12:04.098Z,62.65
2019-02-17T19:14:31.491Z,62.78
2019-02-17T19:16:59.640Z,63.12
2019-02-17T19:19:27.854Z,63.25
2019-02-17T19:21:55.100Z,63.60
2019-02-17T19:24:22.482Z,63.79
2019-02-17T19:26:49.917Z,63.95
2019-02-17T19:29:19.462Z,64.04
2019-02-17T19:31:48.145Z,64.19
2019-02-17T19:34:16.299Z,64.33
2019-02-17T19:36:44.539Z,64.43
2019-02-17T19:39:17.825Z,64.50
2019-02-17T19:41:46.047Z,64.56
2019-02-17T19:44:13.931Z,64.62
2019-02-17T19:46:41.768Z,64.64
2019-02-17T19:49:11.456Z,64.78
2019-02-17T19:51:38.829Z,64.90
2019-02-17T19:54:06.444Z,65.00
2019-02-17T19:56:33.924Z,65.13
2019-02-17T19:59:01.402Z,65.59
2019-02-17T20:01:28.769Z,65.91
2019-02-17T20:04:20.689Z,65.90
2019-02-17T20:06:48.962Z,65.77
2019-02-17T20:09:18.160Z,65.84
2019-02-17T20:11:48.102Z,66.31
2019-02-17T20:14:15.813Z,66.34
2019-02-17T20:16:45.305Z,66.23
2019-02-17T20:19:15.714Z,66.23
2019-02-17T20:21:43.813Z,66.02
2019-02-17T20:24:11.198Z,66.07
2019-02-17T20:26:38.461Z,66.03
2019-02-17T20:29:05.752Z,66.27
2019-02-17T20:31:33.107Z,66.61
2019-02-17T20:34:01.750Z,66.87
2019-02-17T20:36:29.283Z,66.75
2019-02-17T20:38:57.535Z,66.67
2019-02-17T20:41:24.809Z,66.61
2019-02-17T20:43:52.074Z,66.72
2019-02-17T20:46:26.590Z,66.70
2019-02-17T20:48:53.771Z,66.60
2019-02-17T20:51:21.342Z,66.82
2019-02-17T20:53:48.494Z,66.91
2019-02-17T20:56:15.674Z,67.33
2019-02-17T20:58:44.218Z,67.61
2019-02-17T21:01:12.881Z,67.65
2019-02-17T21:03:40.075Z,67.48
2019-02-17T21:06:12.802Z,67.48
2019-02-17T21:08:37.845Z,67.88
2019-02-17T21:11:05.857Z,68.00
2019-02-17T21:13:33.323Z,68.12
2019-02-17T21:16:00.437Z,68.06
2019-02-17T21:18:27.602Z,67.81
2019-02-17T21:20:54.763Z,68.05
2019-02-17T21:23:21.895Z,68.19
2019-02-17T21:25:49.353Z,68.34
2019-02-17T21:28:16.905Z,68.49
2019-02-17T21:30:44.006Z,68.50
2019-02-17T21:33:11.149Z,68.32
2019-02-17T21:35:38.382Z,68.36
2019-02-17T21:38:05.522Z,68.23
2019-02-17T21:40:32.641Z,68.36
2019-02-17T21:43:00.187Z,68.38
2019-02-17T21:45:27.303Z,68.37
2019-02-17T21:47:54.849Z,68.24
2019-02-17T21:50:21.946Z,68.28
2019-02-17T21:52:49.061Z,68.46
2019-02-17T21:55:16.162Z,68.51
2019-02-17T21:57:44.576Z,68.54
2019-02-17T22:00:14.015Z,68.59
2019-02-17T22:02:41.201Z,68.58
2019-02-17T22:05:08.292Z,68.62
2019-02-17T22:07:35.381Z,68.67
2019-02-17T22:10:02.500Z,68.57
2019-02-17T22:12:29.597Z,68.88
2019-02-17T22:14:56.682Z,69.17
2019-02-17T22:17:23.847Z,69.22
2019-02-17T22:19:50.893Z,69.32
2019-02-17T22:22:17.977Z,69.32
2019-02-17T22:24:45.131Z,69.08
2019-02-17T22:27:12.187Z,68.87
2019-02-17T22:29:39.223Z,68.99
2019-02-17T22:32:06.305Z,68.98
2019-02-17T22:34:33.353Z,68.75
2019-02-17T22:37:00.375Z,68.44
2019-02-17T22:39:27.417Z,68.19
2019-02-17T22:41:54.460Z,68.09
2019-02-17T22:44:21.475Z,68.18
2019-02-17T22:46:48.525Z,68.37
2019-02-17T22:49:15.567Z,68.68
2019-02-17T22:51:42.594Z,68.80
2019-02-17T22:54:09.628Z,68.92
2019-02-17T22:56:36.686Z,69.04
2019-02-17T22:59:03.725Z,68.98
2019-02-17T23:01:32.515Z,68.88
2019-02-17T23:03:59.565Z,68.62
2019-02-17T23:06:27.459Z,68.68
2019-02-17T23:08:54.504Z,68.79
2019-02-17T23:11:21.560Z,68.70
2019-02-17T23:13:48.586Z,68.83
2019-02-17T23:16:15.631Z,68.97
2019-02-17T23:18:44.533Z,68.93
2019-02-17T23:21:11.607Z,69.00
2019-02-17T23:23:38.664Z,69.17
2019-02-17T23:26:05.706Z,69.43
2019-02-17T23:28:32.754Z,69.51
2019-02-17T23:30:59.772Z,69.41
2019-02-17T23:33:26.800Z,69.61
2019-02-17T23:35:53.844Z,69.95
2019-02-17T23:38:20.878Z,70.02
2019-02-17T23:40:47.893Z,69.98
2019-02-17T23:43:14.934Z,69.90
2019-02-17T23:45:42.011Z,69.79
2019-02-17T23:48:08.997Z,69.87
2019-02-17T23:50:36.038Z,69.81
2019-02-17T23:53:03.076Z,69.72
2019-02-17T23:55:30.129Z,69.91
2019-02-17T23:57:57.156Z,70.02
